Latest Weather Observations for Young

IDN60801

Issued at 6:23 pm EST Saturday 9 May 2026 (issued every 10 minutes, with the page automatically refreshed every 10 minutes)

About weather observations | Map of weather stations | Latest weather observations for NSW | Other Formats
Station Details ID: 073138 Name: YOUNG AIRPORT Lat: -34.25 Lon: 148.25 Height: 379.6 m
Data from the previous 72 hours. | See also: Recent months at Young
Date/Time
EST
Temp
°C
App
Temp
°C
Dew
Point
°C
Rel
Hum
%
Delta-T
°C
Wind Press
QNH
hPa
Press
MSL
hPa
Rain since
9am
mm
Dir  Spd
km/h
Gust
km/h
Spd
kts
Gust
kts
09/06:00pm 11.7 11.2 8.0 78 1.8 CALM 0 0 0 0 1025.3 1025.5 0.0
09/05:30pm 13.0 11.7 7.7 70 2.7 W 4 7 2 4 1024.8 1025.0 0.0
09/05:00pm 15.9 14.4 8.4 61 3.9 W 6 9 3 5 1024.6 1024.8 0.0
09/04:30pm 17.4 15.7 8.3 55 4.7 W 7 11 4 6 1024.5 1024.7 0.0
09/04:00pm 18.0 16.6 8.8 55 4.8 WNW 6 9 3 5 1024.4 1024.6 0.0
09/03:30pm 17.8 16.2 8.6 55 4.8 WNW 7 11 4 6 1024.2 1024.4 0.0
09/03:00pm 16.6 15.3 9.3 62 3.8 WNW 6 7 3 4 1024.2 1024.4 0.0
09/02:30pm 17.7 16.1 8.8 56 4.7 NW 7 11 4 6 1024.1 1024.3 0.0
09/02:00pm 17.6 15.7 9.0 57 4.5 WNW 9 15 5 8 1024.1 1024.3 0.0
09/01:30pm 16.8 15.4 8.8 59 4.2 SE 6 9 3 5 1024.4 1024.6 0.0
09/01:00pm 15.7 14.0 8.4 62 3.8 SSW 7 11 4 6 1024.7 1024.9 0.0
09/12:30pm 16.2 14.7 9.2 63 3.7 ENE 7 13 4 7 1025.1 1025.3 0.0
09/12:00pm 15.2 13.5 8.2 63 3.6 NNE 7 13 4 7 1025.5 1025.8 0.0
09/11:30am 14.6 13.0 8.1 65 3.3 ENE 6 11 3 6 1025.9 1026.1 0.0
09/11:00am 14.0 12.2 8.0 67 3.0 NNW 7 7 4 4 1026.1 1026.3 0.0
09/10:30am 13.0 11.4 7.9 71 2.6 N 6 7 3 4 1026.1 1026.3 0.0
09/10:00am 11.2 10.8 8.2 82 1.5 CALM 0 0 0 0 1026.3 1026.5 0.0
09/09:30am 9.5 9.3 9.0 97 0.3 CALM 0 6 0 3 1026.2 1026.4 0.0
09/09:00am 7.3 5.5 7.0 98 0.1 SSW 6 7 3 4 1026.2 1026.4 0.2
09/08:46am 6.2 3.9 5.9 98 0.1 S 7 7 4 4 1026.1 1026.3 0.2
09/08:41am 6.0 3.7 5.7 98 0.1 S 7 9 4 5 1026.1 1026.3 0.2
09/08:30am 5.0 2.7 4.7 98 0.1 S 6 7 3 4 1026.1 1026.3 0.2
09/08:00am 3.8 2.4 3.5 98 0.1 CALM 0 0 0 0 1025.6 1025.9 0.2
09/07:30am 2.7 1.1 2.4 98 0.1 CALM 0 0 0 0 1025.4 1025.6 0.2
09/07:00am 2.2 -0.2 1.9 98 0.1 S 4 7 2 4 1025.2 1025.4 0.2
09/06:30am 1.6 -1.3 1.3 98 0.1 SSW 6 7 3 4 1025.1 1025.3 0.2
09/06:00am 1.7 -0.1 1.3 97 0.2 CALM 0 0 0 0 1024.5 1024.7 0.2
09/05:30am 1.9 -1.0 1.5 97 0.2 SSW 6 7 3 4 1024.3 1024.5 0.2
09/05:02am 1.6 -0.6 1.2 97 0.2 SSW 2 7 1 4 1024.1 1024.3 0.2
09/05:00am 1.6 -0.2 1.2 97 0.2 CALM 0 7 0 4 1024.1 1024.3 0.2
09/04:56am 1.9 0.1 1.5 97 0.2 CALM 0 0 0 0 1024.0 1024.2 0.2
09/04:44am 1.9 0.1 1.5 97 0.2 CALM 0 0 0 0 1023.9 1024.1 0.2
09/04:30am 2.0 0.3 1.6 97 0.2 CALM 0 0 0 0 1023.9 1024.1 0.2
09/04:03am 2.1 0.0 1.7 97 0.2 SSW 2 9 1 5 1023.8 1024.0 0.2
09/04:00am 2.2 0.5 1.8 97 0.2 CALM 0 0 0 0 1023.9 1024.1 0.2
09/03:30am 2.4 -0.6 1.8 96 0.2 SSW 7 7 4 4 1023.7 1023.9 0.2
09/03:00am 2.4 0.7 1.8 96 0.2 CALM 0 0 0 0 1023.7 1023.9 0.2
09/02:30am 2.9 1.3 2.3 96 0.2 CALM 0 0 0 0 1023.9 1024.1 0.2
09/02:00am 3.0 1.0 2.4 96 0.2 SSW 2 7 1 4 1024.0 1024.2 0.2
09/01:30am 4.0 2.6 3.6 97 0.2 CALM 0 7 0 4 1024.1 1024.3 0.2
09/01:00am 4.1 2.7 3.5 96 0.3 CALM 0 0 0 0 1024.0 1024.2 0.2
09/12:30am 4.0 1.4 3.4 96 0.3 SSW 6 9 3 5 1023.7 1023.9 0.2
09/12:00am 4.4 1.9 3.8 96 0.3 SSW 6 7 3 4 1023.8 1024.0 0.2
 
Date/Time
EST
Temp
°C
App
Temp
°C
Dew
Point
°C
Rel
Hum
%
Delta-T
°C
Wind Press
QNH
hPa
Press
MSL
hPa
Rain since
9am
mm
Dir  Spd
km/h
Gust
km/h
Spd
kts
Gust
kts
08/11:30pm 4.4 1.9 3.7 95 0.3 N 6 9 3 5 1023.8 1024.0 0.2
08/11:00pm 4.8 3.1 4.1 95 0.3 S 2 6 1 3 1023.8 1024.0 0.2
08/10:30pm 4.9 2.5 4.2 95 0.3 SE 6 11 3 6 1024.1 1024.3 0.2
08/10:00pm 5.5 3.9 4.6 94 0.4 SE 2 7 1 4 1024.2 1024.4 0.2
08/09:30pm 6.5 5.5 5.5 93 0.5 CALM 0 0 0 0 1023.9 1024.1 0.2
08/09:00pm 6.7 4.4 5.7 93 0.5 ENE 7 9 4 5 1023.9 1024.1 0.2
08/08:30pm 7.8 6.2 6.3 90 0.7 W 4 7 2 4 1023.7 1023.9 0.2
08/08:00pm 8.4 6.8 6.5 88 0.9 SSW 4 6 2 3 1023.5 1023.7 0.2
08/07:30pm 8.9 7.0 6.9 87 1.0 SW 6 7 3 4 1023.2 1023.3 0.2
08/07:00pm 9.3 7.3 7.3 87 1.0 SW 7 9 4 5 1023.3 1023.4 0.2
08/06:30pm 11.4 9.2 7.7 78 1.8 SW 9 11 5 6 1022.8 1023.0 0.2
08/06:00pm 12.1 11.2 7.8 75 2.1 W 2 9 1 5 1022.7 1022.9 0.2
08/05:30pm 12.4 10.2 7.9 74 2.3 WSW 9 17 5 9 1022.3 1022.5 0.2
08/05:00pm 12.9 10.9 8.8 76 2.1 WSW 9 15 5 8 1022.0 1022.2 0.2
08/04:30pm 13.2 11.8 8.7 74 2.3 W 6 15 3 8 1022.1 1022.3 0.2
08/04:00pm 13.4 11.2 9.3 76 2.1 WSW 11 17 6 9 1021.8 1022.0 0.2
08/03:30pm 12.7 9.9 8.6 76 2.1 W 13 20 7 11 1021.7 1021.9 0.2
08/03:00pm 12.6 10.6 8.7 77 2.0 W 9 17 5 9 1021.7 1021.9 0.2
08/02:30pm 11.9 9.5 8.7 81 1.6 W 11 17 6 9 1021.8 1022.0 0.2
08/02:00pm 11.7 8.9 8.6 81 1.6 WSW 13 20 7 11 1022.0 1022.2 0.2
08/01:30pm 11.2 8.4 8.6 84 1.3 W 13 19 7 10 1022.0 1022.2 0.2
08/01:00pm 10.6 8.6 8.5 87 1.0 W 9 19 5 10 1022.0 1022.2 0.2
08/12:38pm 10.2 7.7 8.3 88 0.9 WNW 11 15 6 8 1022.0 1022.2 0.2
08/12:30pm 9.9 8.3 8.8 93 0.6 NW 7 13 4 7 1022.3 1022.5 0.2
08/12:15pm 9.6 7.6 8.8 95 0.4 NW 9 15 5 8 1022.5 1022.7 0.2
08/12:00pm 9.2 6.7 8.4 95 0.4 NW 11 15 6 8 1022.7 1022.9 0.2
08/11:30am 8.8 6.2 7.9 94 0.4 NNW 11 15 6 8 1023.2 1023.3 0.2
08/11:14am 8.5 6.2 7.4 93 0.5 NNW 9 15 5 8 1023.3 1023.4 0.0
08/11:00am 8.3 5.6 7.2 93 0.5 NW 11 17 6 9 1023.5 1023.7 0.0
08/10:51am 8.3 6.0 7.4 94 0.4 NW 9 15 5 8 1023.5 1023.7 0.0
08/10:30am 8.1 5.3 7.0 93 0.5 NW 11 15 6 8 1023.6 1023.8 0.0
08/10:19am 8.0 6.0 6.9 93 0.5 NW 7 11 4 6 1023.7 1023.9 0.0
08/10:00am 7.6 5.1 6.5 93 0.5 NW 9 13 5 7 1023.7 1023.9 0.0
08/09:30am 7.1 4.5 6.0 93 0.5 NNW 9 15 5 8 1023.5 1023.7 0.0
08/09:00am 6.7 3.7 5.8 94 0.4 NW 11 17 6 9 1023.5 1023.7 0.0
08/08:36am 6.6 3.1 5.6 93 0.5 NW 13 19 7 10 1023.2 1023.3 0.0
08/08:30am 6.6 3.2 5.7 94 0.4 NW 13 17 7 9 1023.2 1023.3 0.0
08/08:00am 6.1 3.2 4.9 92 0.5 NW 9 15 5 8 1023.3 1023.4 0.0
08/07:30am 5.9 2.6 4.4 90 0.7 NW 11 19 6 10 1023.1 1023.2 0.0
08/07:00am 6.1 2.7 3.8 85 1.0 NW 11 15 6 8 1022.6 1022.8 0.0
08/06:30am 6.2 2.3 3.5 83 1.2 NW 13 17 7 9 1022.4 1022.6 0.0
08/06:00am 6.1 2.6 3.3 82 1.2 NW 11 15 6 8 1022.5 1022.7 0.0
08/05:30am 6.2 3.0 3.2 81 1.3 NW 9 15 5 8 1022.5 1022.7 0.0
08/05:00am 6.1 2.9 3.1 81 1.3 NW 9 13 5 7 1022.5 1022.7 0.0
08/04:30am 6.0 3.3 2.8 80 1.4 NNW 6 9 3 5 1022.3 1022.5 0.0
08/04:00am 6.0 3.3 2.8 80 1.3 NW 6 11 3 6 1022.3 1022.5 0.0
08/03:30am 6.1 3.2 2.7 79 1.4 NW 7 11 4 6 1022.4 1022.6 0.0
08/03:00am 6.5 3.8 2.8 77 1.6 WNW 6 9 3 5 1022.3 1022.5 0.0
08/02:30am 6.6 3.7 2.7 76 1.7 WNW 7 13 4 7 1022.5 1022.7 0.0
08/02:00am 6.5 3.6 2.8 77 1.6 WNW 7 11 4 6 1022.7 1022.9 0.0
08/01:30am 6.3 3.6 2.8 78 1.5 W 6 9 3 5 1022.8 1023.0 0.0
08/01:00am 6.0 2.7 2.6 79 1.4 WSW 9 11 5 6 1023.1 1023.2 0.0
08/12:30am 5.2 2.2 1.9 79 1.4 WSW 7 11 4 6 1023.2 1023.3 0.0
08/12:00am 5.5 1.7 2.0 78 1.4 WSW 11 17 6 9 1023.3 1023.4 0.0
 
Date/Time
EST
Temp
°C
App
Temp
°C
Dew
Point
°C
Rel
Hum
%
Delta-T
°C
Wind Press
QNH
hPa
Press
MSL
hPa
Rain since
9am
mm
Dir  Spd
km/h
Gust
km/h
Spd
kts
Gust
kts
07/11:30pm 5.6 1.8 1.9 77 1.5 WSW 11 15 6 8 1023.4 1023.6 0.0
07/11:00pm 6.0 2.2 1.7 74 1.8 WSW 11 20 6 11 1023.4 1023.6 0.0
07/10:30pm 6.6 2.0 1.7 71 2.0 WSW 15 22 8 12 1023.4 1023.6 0.0
07/10:00pm 7.2 3.0 1.9 69 2.2 WSW 13 20 7 11 1023.5 1023.7 0.0
07/09:30pm 7.2 3.4 1.9 69 2.2 W 11 17 6 9 1023.4 1023.6 0.0
07/09:00pm 6.9 3.1 1.8 70 2.1 WSW 11 17 6 9 1023.3 1023.4 0.0
07/08:30pm 5.5 2.9 1.1 73 1.8 WNW 4 7 2 4 1023.3 1023.4 0.0
07/08:00pm 6.2 3.1 1.1 70 2.1 SW 7 13 4 7 1023.1 1023.2 0.0
07/07:30pm 6.6 2.7 1.1 68 2.2 WSW 11 19 6 10 1022.9 1023.1 0.0
07/07:00pm 7.0 2.7 0.9 65 2.5 WSW 13 20 7 11 1022.5 1022.7 0.0
07/06:30pm 7.3 2.2 0.7 63 2.7 WSW 17 28 9 15 1022.1 1022.3 0.0
07/06:00pm 7.5 3.2 0.7 62 2.8 SW 13 20 7 11 1022.0 1022.2 0.0
07/05:30pm 7.7 2.6 0.7 61 2.9 WSW 17 28 9 15 1021.7 1021.9 0.0
07/05:00pm 8.4 1.9 0.6 58 3.2 SW 24 37 13 20 1021.2 1021.4 0.0
07/04:30pm 9.2 2.6 -0.1 52 3.8 SW 24 41 13 22 1021.0 1021.1 0.0
07/04:00pm 9.5 2.6 0.1 52 3.8 WSW 26 41 14 22 1020.9 1021.0 0.0
07/03:30pm 9.7 2.6 1.1 55 3.6 SW 28 39 15 21 1020.7 1020.8 0.0
07/03:00pm 10.0 2.0 0.1 50 4.1 WSW 32 50 17 27 1020.4 1020.5 0.0
07/02:30pm 9.9 2.7 0.5 52 3.9 WSW 28 48 15 26 1020.1 1020.3 0.0
07/02:24pm 9.8 2.2 0.7 53 3.8 WSW 30 48 16 26 1020.1 1020.3 0.0
07/02:00pm 10.2 2.7 1.3 54 3.8 SW 30 44 16 24 1019.9 1020.1 0.0
07/01:42pm 10.6 3.6 1.7 54 3.8 WSW 28 46 15 25 1019.9 1020.1 0.0
07/01:30pm 10.2 2.3 1.3 54 3.8 WSW 32 43 17 23 1019.8 1020.0 0.0
07/01:00pm 10.3 2.5 1.4 54 3.8 WSW 32 50 17 27 1019.9 1020.1 0.0
07/12:30pm 9.8 1.8 0.7 53 3.8 SW 32 50 17 27 1020.0 1020.2 0.0
07/12:00pm 10.2 2.5 2.1 57 3.5 SW 32 50 17 27 1020.0 1020.2 0.0
07/11:49am 9.4 1.5 0.8 55 3.6 SW 32 50 17 27 1020.1 1020.3 0.0
07/11:30am 10.1 2.7 1.7 56 3.6 WSW 30 44 16 24 1020.5 1020.6 0.0
07/11:00am 8.6 0.6 0.1 55 3.4 SW 32 50 17 27 1020.6 1020.7 0.0
07/10:47am 8.9 1.8 1.6 60 3.1 SW 28 46 15 25 1020.4 1020.5 0.0
07/10:30am 8.5 1.3 1.0 59 3.1 SW 28 43 15 23 1020.1 1020.3 0.0
07/10:00am 8.2 1.2 1.8 64 2.7 SW 28 43 15 23 1020.1 1020.3 0.0
07/09:39am 7.7 0.7 1.8 66 2.5 SW 28 50 15 27 1020.0 1020.2 0.0
07/09:30am 7.5 0.9 2.2 69 2.2 SW 26 37 14 20 1019.8 1020.0 0.0
07/09:00am 6.9 -0.9 1.6 69 2.2 SW 32 54 17 29 1019.7 1019.9 0.2
07/08:56am 6.8 -1.1 1.1 67 2.3 SW 32 54 17 29 1019.7 1019.9 0.2
07/08:30am 7.2 0.6 2.3 71 2.1 SW 26 35 14 19 1019.3 1019.5 0.2
07/08:07am 6.8 -0.2 1.9 71 2.0 SW 28 46 15 25 1019.1 1019.3 0.2
07/08:00am 6.9 1.1 2.2 72 2.0 SW 22 33 12 18 1019.0 1019.2 0.2
07/07:30am 7.0 -0.1 3.3 77 1.6 SW 30 46 16 25 1018.4 1018.5 0.2
07/07:22am 7.0 0.2 3.1 76 1.7 SW 28 46 15 25 1018.2 1018.3 0.2
07/07:00am 7.8 3.0 4.7 81 1.4 WSW 19 28 10 15 1017.6 1017.7 0.2
07/06:30am 8.3 3.6 5.2 81 1.4 WSW 19 28 10 15 1017.1 1017.3 0.2
07/06:05am 8.8 3.5 4.8 76 1.8 WSW 22 35 12 19 1016.7 1016.9 0.2
07/06:00am 8.9 3.6 4.9 76 1.8 WSW 22 35 12 19 1016.7 1016.9 0.2
07/05:30am 9.6 7.1 8.2 91 0.7 WNW 11 20 6 11 1016.5 1016.6 0.2
07/05:00am 9.3 6.8 8.1 92 0.6 WNW 11 17 6 9 1016.5 1016.6 0.2
07/04:39am 9.2 6.7 8.0 92 0.6 WNW 11 20 6 11 1016.5 1016.6 0.2
07/04:30am 9.2 7.0 8.0 92 0.6 WNW 9 15 5 8 1016.6 1016.8 0.2
07/04:24am 9.2 6.7 8.0 92 0.6 NW 11 17 6 9 1016.6 1016.8 0.2
07/04:12am 9.3 7.0 7.6 89 0.8 WNW 9 17 5 9 1016.7 1016.9 0.0
07/04:05am 9.6 7.3 7.5 87 1.0 WNW 9 13 5 7 1016.6 1016.8 0.0
07/04:00am 9.6 7.3 7.5 87 1.0 WNW 9 13 5 7 1016.6 1016.8 0.0
07/03:30am 10.0 7.3 7.4 84 1.3 NW 11 17 6 9 1016.8 1017.0 0.0
07/03:19am 10.0 7.7 7.6 85 1.2 NW 9 15 5 8 1016.9 1017.1 0.0
07/03:00am 10.0 7.3 7.4 84 1.3 NW 11 17 6 9 1017.1 1017.3 0.0
07/02:30am 9.8 7.2 7.6 86 1.1 NW 11 15 6 8 1017.3 1017.5 0.0
07/02:00am 9.9 8.0 7.5 85 1.2 NNW 7 11 4 6 1017.6 1017.7 0.0
07/01:30am 8.5 7.1 7.3 92 0.6 NNW 4 7 2 4 1018.0 1018.1 0.0
07/01:00am 8.1 7.0 7.0 93 0.5 NNW 2 7 1 4 1018.1 1018.2 0.0
07/12:30am 7.4 5.4 6.2 92 0.6 WNW 6 7 3 4 1018.3 1018.4 0.0
07/12:00am 8.0 6.3 6.1 88 0.9 W 4 6 2 3 1018.6 1018.7 0.0
 
Date/Time
EST
Temp
°C
App
Temp
°C
Dew
Point
°C
Rel
Hum
%
Delta-T
°C
Wind Press
QNH
hPa
Press
MSL
hPa
Rain since
9am
mm
Dir  Spd
km/h
Gust
km/h
Spd
kts
Gust
kts
06/11:30pm 9.7 8.2 6.8 82 1.4 W 4 6 2 3 1018.7 1018.8 0.0
06/11:00pm 11.1 9.0 6.8 75 2.1 WSW 7 13 4 7 1019.0 1019.2 0.0
06/10:30pm 11.5 8.9 7.6 77 1.9 SW 11 15 6 8 1019.3 1019.5 0.0
06/10:00pm 11.6 9.4 7.9 78 1.8 SW 9 13 5 7 1019.4 1019.6 0.0
06/09:30pm 11.9 9.4 8.2 78 1.9 SW 11 17 6 9 1019.3 1019.5 0.0
06/09:00pm 11.9 9.5 8.7 81 1.6 SW 11 15 6 8 1019.4 1019.6 0.0
06/08:30pm 9.9 9.5 8.2 89 0.8 CALM 0 0 0 0 1019.5 1019.7 0.0
06/08:00pm 9.5 9.1 8.3 92 0.6 CALM 0 0 0 0 1019.4 1019.6 0.0
06/07:30pm 9.2 8.6 7.5 89 0.8 CALM 0 0 0 0 1019.3 1019.5 0.0
06/07:00pm 9.7 9.2 7.8 88 0.9 CALM 0 0 0 0 1019.2 1019.4 0.0
06/06:30pm 9.8 9.2 7.4 85 1.2 CALM 0 0 0 0 1019.1 1019.3 0.0

Other formats

Comma delimited format used in spreadsheet applications
http://www.bom.gov.au/fwo/IDN60801/IDN60801.94712.axf

JavaScript Object Notation format (JSON) in row-major order
http://www.bom.gov.au/fwo/IDN60801/IDN60801.94712.json

Data quality

Most of these data are generated automatically and are frequently updated. Quality checks on data are not normally performed. It is possible for incorrect values to appear. Refer to information at About Latest Weather Observations and please check the disclaimer before using these data.